Time;durP1;ratioP1;P1;durP2;ratioP2;P2;SDS_P1;SDS_P2;PMS_P1;PMS_P2;Temp;Humidity;BMP_temperature;BMP_pressure;BME280_temperature;BME280_humidity;BME280_pressure;Samples;Min_cycle;Max_cycle;Signal;HPM_P1;HPM_P2
2023/02/26 00:01:10;;;;;;;6.22;3.03;;;;;;;;;;5050722;28;20028;-69
2023/02/26 00:03:35;;;;;;;3.70;1.63;;;;;;;;;;5050632;28;20037;-68
2023/02/26 00:06:01;;;;;;;5.27;1.80;;;;;;;;;;5048306;28;20032;-69
2023/02/26 00:08:26;;;;;;;4.80;1.90;;;;;;;;;;5050294;28;20284;-67
2023/02/26 00:10:53;;;;;;;4.80;1.77;;;;;;;;;;5050550;28;20660;-68
2023/02/26 00:13:19;;;;;;;3.35;2.13;;;;;;;;;;5049394;28;20329;-68
2023/02/26 00:15:44;;;;;;;6.05;2.28;;;;;;;;;;5054264;28;20443;-68
2023/02/26 00:18:12;;;;;;;5.18;1.92;;;;;;;;;;5042638;28;20025;-69
2023/02/26 00:20:37;;;;;;;5.97;1.90;;;;;;;;;;5047413;28;20078;-68
2023/02/26 00:23:03;;;;;;;5.38;1.88;;;;;;;;;;5050317;28;20045;-70
2023/02/26 00:25:28;;;;;;;4.85;2.28;;;;;;;;;;5046625;28;20096;-68
2023/02/26 00:27:53;;;;;;;9.95;3.05;;;;;;;;;;5049585;28;20059;-66
2023/02/26 00:30:19;;;;;;;6.35;2.45;;;;;;;;;;5049678;28;20033;-67
2023/02/26 00:32:44;;;;;;;4.80;1.90;;;;;;;;;;5050147;28;20464;-68
2023/02/26 00:35:12;;;;;;;3.65;1.65;;;;;;;;;;5049780;28;20029;-70
2023/02/26 00:37:47;;;;;;;5.75;2.15;;;;;;;;;;5050122;28;20068;-65
2023/02/26 00:40:16;;;;;;;4.35;1.55;;;;;;;;;;5041473;28;20033;-66
2023/02/26 00:42:42;;;;;;;5.47;2.95;;;;;;;;;;5039929;28;20024;-72
2023/02/26 00:45:08;;;;;;;6.65;2.25;;;;;;;;;;5051902;28;20078;-75
2023/02/26 00:47:33;;;;;;;5.18;2.00;;;;;;;;;;5052293;28;20514;-75
2023/02/26 00:50:18;;;;;;;4.65;1.65;;;;;;;;;;5042497;28;20112;-77
2023/02/26 00:53:02;;;;;;;3.35;1.85;;;;;;;;;;5049767;28;20032;-76
2023/02/26 00:55:28;;;;;;;4.15;1.33;;;;;;;;;;5048613;28;20021;-75
2023/02/26 00:57:53;;;;;;;4.68;2.72;;;;;;;;;;5045895;28;20029;-69
2023/02/26 01:00:19;;;;;;;7.13;2.75;;;;;;;;;;5031317;28;20040;-72
2023/02/26 01:02:44;;;;;;;8.43;2.97;;;;;;;;;;5048854;28;20029;-67
2023/02/26 01:05:10;;;;;;;6.72;2.45;;;;;;;;;;5043177;28;20035;-67
2023/02/26 01:07:41;;;;;;;3.38;2.05;;;;;;;;;;5046286;28;20599;-68
2023/02/26 01:10:07;;;;;;;3.83;1.60;;;;;;;;;;5049217;28;20043;-68
2023/02/26 01:12:32;;;;;;;4.28;2.00;;;;;;;;;;5049108;28;20391;-69
2023/02/26 01:14:58;;;;;;;4.45;1.70;;;;;;;;;;5049038;28;20048;-68
2023/02/26 01:17:35;;;;;;;3.72;1.58;;;;;;;;;;5040362;28;20033;-66
2023/02/26 01:20:00;;;;;;;4.93;1.83;;;;;;;;;;5050299;28;20064;-67
2023/02/26 01:22:35;;;;;;;6.37;2.07;;;;;;;;;;5043309;28;20475;-66
2023/02/26 01:25:05;;;;;;;5.07;1.73;;;;;;;;;;5045390;28;20400;-69
2023/02/26 01:27:30;;;;;;;4.68;2.45;;;;;;;;;;5041158;28;20538;-68
2023/02/26 01:29:55;;;;;;;3.47;2.13;;;;;;;;;;5043718;28;20036;-65
2023/02/26 01:32:25;;;;;;;6.88;2.22;;;;;;;;;;5045330;28;20275;-68
2023/02/26 01:34:50;;;;;;;;;;;;;;;;;;5049376;28;20232;-67
2023/02/26 01:37:34;;;;;;;4.90;2.05;;;;;;;;;;5048240;28;19920;-70
2023/02/26 01:40:02;;;;;;;4.10;1.98;;;;;;;;;;5044098;28;20037;-72
2023/02/26 01:42:30;;;;;;;5.60;2.30;;;;;;;;;;5044294;28;20433;-72
2023/02/26 01:44:55;;;;;;;7.88;2.15;;;;;;;;;;5043851;28;20041;-73
2023/02/26 01:47:25;;;;;;;3.53;1.73;;;;;;;;;;5032916;28;20049;-72
2023/02/26 01:49:50;;;;;;;5.05;2.17;;;;;;;;;;5053261;28;20040;-72
2023/02/26 01:52:30;;;;;;;4.03;1.67;;;;;;;;;;5051338;28;20032;-72
2023/02/26 01:54:55;;;;;;;3.95;1.90;;;;;;;;;;5048310;28;20025;-71
2023/02/26 01:57:21;;;;;;;5.83;2.03;;;;;;;;;;5047241;28;20025;-65
2023/02/26 01:59:48;;;;;;;4.47;2.00;;;;;;;;;;5037793;28;20268;-67
2023/02/26 02:02:16;;;;;;;4.22;1.70;;;;;;;;;;5047542;28;20021;-66
2023/02/26 02:04:43;;;;;;;4.10;1.70;;;;;;;;;;5045971;28;20158;-66
2023/02/26 02:07:08;;;;;;;7.60;2.20;;;;;;;;;;5029360;28;20029;-68
2023/02/26 02:09:33;;;;;;;7.63;1.92;;;;;;;;;;5047497;28;20021;-66
2023/02/26 02:12:05;;;;;;;4.95;2.05;;;;;;;;;;5047347;28;20498;-66
2023/02/26 02:14:37;;;;;;;4.88;1.73;;;;;;;;;;5043632;28;20475;-67
2023/02/26 02:17:09;;;;;;;3.13;1.50;;;;;;;;;;5045694;28;20028;-64
2023/02/26 02:19:34;;;;;;;6.70;2.17;;;;;;;;;;5039621;28;20044;-65
2023/02/26 02:22:12;;;;;;;3.80;1.43;;;;;;;;;;5051771;28;20096;-65
2023/02/26 02:24:38;;;;;;;;;;;;;;;;;;5040514;28;20100;-67
2023/02/26 02:27:12;;;;;;;5.53;1.52;;;;;;;;;;5048792;28;20015;-66
2023/02/26 02:29:47;;;;;;;4.93;2.03;;;;;;;;;;5037228;28;20029;-65
2023/02/26 02:32:18;;;;;;;3.35;1.60;;;;;;;;;;5038306;28;20025;-70
2023/02/26 02:34:43;;;;;;;4.47;2.70;;;;;;;;;;5052192;28;20032;-68
2023/02/26 02:37:27;;;;;;;4.27;1.90;;;;;;;;;;5047115;28;20021;-67
2023/02/26 02:39:55;;;;;;;2.63;1.65;;;;;;;;;;5052510;28;20029;-68
2023/02/26 02:42:36;;;;;;;3.75;1.83;;;;;;;;;;5051947;28;20033;-68
2023/02/26 02:45:07;;;;;;;4.85;1.83;;;;;;;;;;5041545;28;20029;-68
2023/02/26 02:47:34;;;;;;;4.00;1.65;;;;;;;;;;5045372;28;20549;-67
2023/02/26 02:50:08;;;;;;;3.10;1.65;;;;;;;;;;5047841;28;20357;-66
2023/02/26 02:52:42;;;;;;;4.22;1.60;;;;;;;;;;5051993;28;20614;-75
2023/02/26 02:55:12;;;;;;;4.00;1.50;;;;;;;;;;5057520;28;20031;-75
2023/02/26 02:57:47;;;;;;;4.88;1.77;;;;;;;;;;5051904;28;20500;-77
2023/02/26 03:00:14;;;;;;;7.13;2.60;;;;;;;;;;5051022;28;20021;-76
2023/02/26 03:02:49;;;;;;;2.63;1.50;;;;;;;;;;5046042;28;20021;-77
2023/02/26 03:05:15;;;;;;;8.70;2.10;;;;;;;;;;5048785;28;20067;-76
2023/02/26 03:07:44;;;;;;;4.57;1.90;;;;;;;;;;5051732;28;20028;-72
2023/02/26 03:10:10;;;;;;;4.55;1.77;;;;;;;;;;5051492;28;20040;-69
2023/02/26 03:12:36;;;;;;;6.03;2.92;;;;;;;;;;5051743;28;20071;-70
2023/02/26 03:15:01;;;;;;;2.88;1.45;;;;;;;;;;5050943;28;20021;-68
2023/02/26 03:17:38;;;;;;;4.32;1.83;;;;;;;;;;5051710;28;20028;-69
2023/02/26 03:20:08;;;;;;;3.90;2.10;;;;;;;;;;5038088;28;20090;-69
2023/02/26 03:22:33;;;;;;;4.07;1.90;;;;;;;;;;5051887;28;20416;-68
2023/02/26 03:25:07;;;;;;;3.73;1.40;;;;;;;;;;5049428;28;20072;-68
2023/02/26 03:27:48;;;;;;;6.10;2.10;;;;;;;;;;5056700;28;20116;-73
2023/02/26 03:30:16;;;;;;;2.88;1.35;;;;;;;;;;5045580;28;20025;-77
2023/02/26 03:32:50;;;;;;;3.28;1.50;;;;;;;;;;5037686;28;20075;-77
2023/02/26 03:35:18;;;;;;;6.70;1.90;;;;;;;;;;5041617;28;20033;-78
2023/02/26 03:37:50;;;;;;;4.50;2.00;;;;;;;;;;5050876;28;20049;-76
2023/02/26 03:40:23;;;;;;;5.95;2.08;;;;;;;;;;5050945;28;20072;-78
2023/02/26 03:43:01;;;;;;;3.25;1.50;;;;;;;;;;5033171;28;20053;-78
2023/02/26 03:45:32;;;;;;;4.68;2.03;;;;;;;;;;5040067;28;20079;-69
2023/02/26 03:47:58;;;;;;;3.45;1.60;;;;;;;;;;5042480;28;20108;-68
2023/02/26 03:50:23;;;;;;;5.60;1.70;;;;;;;;;;5050449;28;20029;-68
2023/02/26 03:52:49;;;;;;;5.30;2.53;;;;;;;;;;5050822;28;20033;-69
2023/02/26 03:55:16;;;;;;;5.57;2.28;;;;;;;;;;5042999;28;20033;-68
2023/02/26 03:57:42;;;;;;;3.28;1.80;;;;;;;;;;5049527;28;20131;-67
2023/02/26 04:00:09;;;;;;;6.63;1.65;;;;;;;;;;5045135;28;20492;-68
2023/02/26 04:02:47;;;;;;;3.25;2.00;;;;;;;;;;5049187;28;20025;-70
2023/02/26 04:05:17;;;;;;;3.05;1.75;;;;;;;;;;5043990;28;20029;-73
2023/02/26 04:07:44;;;;;;;4.45;2.63;;;;;;;;;;5043651;28;20431;-69
2023/02/26 04:10:10;;;;;;;4.05;2.03;;;;;;;;;;5049157;28;20127;-66
2023/02/26 04:12:35;;;;;;;4.28;2.30;;;;;;;;;;5049262;28;20056;-66
2023/02/26 04:15:00;;;;;;;5.53;2.07;;;;;;;;;;5048735;28;20051;-64
2023/02/26 04:17:26;;;;;;;3.53;1.77;;;;;;;;;;5049057;28;20363;-65
2023/02/26 04:19:51;;;;;;;5.88;2.25;;;;;;;;;;5049272;28;20410;-66
2023/02/26 04:22:16;;;;;;;5.70;1.97;;;;;;;;;;5031984;28;20029;-76
2023/02/26 04:24:41;;;;;;;4.93;1.88;;;;;;;;;;5049931;28;20339;-77
2023/02/26 04:27:07;;;;;;;4.80;1.73;;;;;;;;;;5050296;28;20072;-76
2023/02/26 04:29:32;;;;;;;3.70;2.00;;;;;;;;;;5054836;28;20025;-76
2023/02/26 04:31:57;;;;;;;5.45;2.42;;;;;;;;;;5053929;28;20185;-77
2023/02/26 04:34:22;;;;;;;5.45;1.85;;;;;;;;;;5050001;28;20052;-76
2023/02/26 04:36:48;;;;;;;7.80;2.17;;;;;;;;;;5043348;28;20035;-78
2023/02/26 04:39:13;;;;;;;5.63;1.77;;;;;;;;;;5050301;28;20267;-76
2023/02/26 04:41:38;;;;;;;6.53;1.83;;;;;;;;;;5050034;28;20283;-75
2023/02/26 04:44:04;;;;;;;3.17;1.45;;;;;;;;;;5039632;28;20036;-74
2023/02/26 04:46:30;;;;;;;4.80;2.05;;;;;;;;;;5042676;28;20402;-74
2023/02/26 04:48:55;;;;;;;3.35;2.00;;;;;;;;;;5019793;28;20447;-75
2023/02/26 04:51:21;;;;;;;2.50;1.50;;;;;;;;;;5049394;28;20503;-75
2023/02/26 04:53:46;;;;;;;4.73;2.07;;;;;;;;;;5049885;28;20090;-76
2023/02/26 04:56:12;;;;;;;4.82;2.00;;;;;;;;;;5044611;28;20303;-74
2023/02/26 04:58:37;;;;;;;6.05;1.90;;;;;;;;;;5049471;28;20475;-68
2023/02/26 05:01:02;;;;;;;5.18;2.17;;;;;;;;;;5043971;28;20045;-73
2023/02/26 05:03:27;;;;;;;5.05;2.33;;;;;;;;;;5055311;28;20472;-70
2023/02/26 05:05:53;;;;;;;3.93;1.90;;;;;;;;;;5041200;28;20384;-71
2023/02/26 05:08:18;;;;;;;2.57;1.40;;;;;;;;;;5030314;28;20773;-70
2023/02/26 05:10:44;;;;;;;7.97;2.22;;;;;;;;;;5049631;28;20938;-71
2023/02/26 05:13:09;;;;;;;8.50;1.95;;;;;;;;;;5049064;28;20051;-71
2023/02/26 05:15:34;;;;;;;3.03;1.60;;;;;;;;;;5033677;28;20033;-74
2023/02/26 05:17:59;;;;;;;6.82;2.85;;;;;;;;;;5044656;28;20260;-74
2023/02/26 05:20:24;;;;;;;3.03;2.00;;;;;;;;;;5044373;28;20024;-69
2023/02/26 05:22:50;;;;;;;8.10;2.47;;;;;;;;;;5049243;28;20554;-68
2023/02/26 05:25:16;;;;;;;7.05;2.63;;;;;;;;;;5047909;28;20280;-70
2023/02/26 05:27:41;;;;;;;4.55;1.60;;;;;;;;;;5043445;28;20028;-69
2023/02/26 05:30:07;;;;;;;8.68;1.98;;;;;;;;;;5033151;28;20120;-70
2023/02/26 05:32:32;;;;;;;4.53;2.15;;;;;;;;;;5049175;28;20021;-71
2023/02/26 05:34:57;;;;;;;4.35;1.75;;;;;;;;;;5057018;28;20035;-69
2023/02/26 05:37:23;;;;;;;4.20;2.80;;;;;;;;;;5046648;28;20112;-75
2023/02/26 05:39:48;;;;;;;3.17;1.80;;;;;;;;;;5049085;28;20521;-75
2023/02/26 05:42:14;;;;;;;3.63;2.00;;;;;;;;;;5048832;28;20061;-75
2023/02/26 05:44:39;;;;;;;5.25;2.42;;;;;;;;;;5042695;28;20079;-76
2023/02/26 05:47:04;;;;;;;5.72;2.08;;;;;;;;;;5047097;28;20407;-75
2023/02/26 05:49:29;;;;;;;4.65;1.88;;;;;;;;;;5043175;28;20029;-76
2023/02/26 05:51:54;;;;;;;3.30;1.73;;;;;;;;;;5048747;28;20117;-75
2023/02/26 05:54:20;;;;;;;5.73;2.17;;;;;;;;;;5048825;28;20289;-65
2023/02/26 05:56:45;;;;;;;5.00;2.50;;;;;;;;;;5044541;28;20394;-74
2023/02/26 05:59:10;;;;;;;5.97;2.77;;;;;;;;;;5046792;28;20426;-73
2023/02/26 06:01:36;;;;;;;5.20;1.77;;;;;;;;;;5048830;28;20706;-72
2023/02/26 06:04:01;;;;;;;4.35;1.80;;;;;;;;;;5048950;28;20115;-72
2023/02/26 06:06:27;;;;;;;4.88;1.50;;;;;;;;;;5051488;28;20047;-71
2023/02/26 06:08:52;;;;;;;5.13;2.00;;;;;;;;;;5052979;28;20063;-74
2023/02/26 06:11:17;;;;;;;8.65;2.88;;;;;;;;;;5051963;28;20341;-76
2023/02/26 06:13:42;;;;;;;6.03;2.10;;;;;;;;;;5048679;28;20504;-77
2023/02/26 06:16:07;;;;;;;5.67;1.97;;;;;;;;;;5040568;28;20757;-65
2023/02/26 06:18:33;;;;;;;4.30;1.40;;;;;;;;;;5052407;28;20726;-64
2023/02/26 06:20:58;;;;;;;3.55;1.90;;;;;;;;;;5052607;28;20769;-63
2023/02/26 06:23:24;;;;;;;4.63;1.77;;;;;;;;;;5039792;28;20036;-65
2023/02/26 06:25:50;;;;;;;4.93;1.95;;;;;;;;;;5032156;28;20103;-64
2023/02/26 06:28:15;;;;;;;5.50;1.60;;;;;;;;;;5045205;28;20095;-65
2023/02/26 06:30:40;;;;;;;5.20;1.60;;;;;;;;;;5052165;28;20025;-68
2023/02/26 06:33:06;;;;;;;5.67;1.97;;;;;;;;;;5052557;28;20353;-64
2023/02/26 06:35:31;;;;;;;3.57;2.13;;;;;;;;;;5042112;28;20272;-65
2023/02/26 06:37:56;;;;;;;6.25;2.20;;;;;;;;;;5053832;28;20347;-65
2023/02/26 06:40:22;;;;;;;4.90;2.20;;;;;;;;;;5054531;28;20626;-65
2023/02/26 06:42:47;;;;;;;4.32;1.90;;;;;;;;;;5052339;28;20099;-64
2023/02/26 06:45:12;;;;;;;6.55;2.38;;;;;;;;;;5052658;28;20533;-66
2023/02/26 06:47:37;;;;;;;5.80;1.70;;;;;;;;;;5051580;28;20040;-64
2023/02/26 06:50:04;;;;;;;7.10;2.07;;;;;;;;;;5049767;28;20283;-71
2023/02/26 06:52:29;;;;;;;5.68;2.67;;;;;;;;;;5047714;28;21151;-75
2023/02/26 06:54:54;;;;;;;5.55;2.35;;;;;;;;;;5040430;28;20060;-74
2023/02/26 06:57:19;;;;;;;6.80;1.80;;;;;;;;;;5047463;28;20017;-74
2023/02/26 06:59:45;;;;;;;7.03;2.00;;;;;;;;;;5047420;28;20772;-73
2023/02/26 07:02:17;;;;;;;4.43;2.28;;;;;;;;;;5051814;28;20037;-74
2023/02/26 07:04:43;;;;;;;5.38;2.20;;;;;;;;;;5051740;28;20029;-75
2023/02/26 07:07:08;;;;;;;7.63;2.97;;;;;;;;;;5040290;28;20050;-70
2023/02/26 07:09:34;;;;;;;6.25;2.05;;;;;;;;;;5034227;28;20047;-67
2023/02/26 07:11:59;;;;;;;3.95;1.80;;;;;;;;;;5054321;28;20122;-66
2023/02/26 07:14:24;;;;;;;6.83;2.90;;;;;;;;;;5040241;28;20031;-66
2023/02/26 07:16:49;;;;;;;6.30;2.83;;;;;;;;;;5051410;28;20632;-67
2023/02/26 07:19:14;;;;;;;6.37;1.83;;;;;;;;;;5040386;28;20051;-65
2023/02/26 07:21:40;;;;;;;12.83;2.47;;;;;;;;;;5048933;28;20734;-66
2023/02/26 07:24:05;;;;;;;7.60;3.00;;;;;;;;;;5051528;28;20037;-66
2023/02/26 07:26:30;;;;;;;5.65;1.88;;;;;;;;;;5051377;28;20679;-67
2023/02/26 07:28:55;;;;;;;4.97;2.33;;;;;;;;;;5038583;28;20033;-68
2023/02/26 07:31:21;;;;;;;4.40;2.17;;;;;;;;;;5051187;28;20306;-68
2023/02/26 07:33:46;;;;;;;3.97;1.70;;;;;;;;;;5051478;28;20271;-66
2023/02/26 07:36:11;;;;;;;4.25;1.92;;;;;;;;;;5051379;28;20372;-66
2023/02/26 07:38:36;;;;;;;8.17;2.07;;;;;;;;;;5051134;28;20430;-68
2023/02/26 07:41:02;;;;;;;8.88;2.28;;;;;;;;;;5053447;28;20440;-69
2023/02/26 07:43:27;;;;;;;6.93;2.00;;;;;;;;;;5056686;28;20557;-64
2023/02/26 07:45:53;;;;;;;4.37;1.80;;;;;;;;;;5050639;28;20029;-70
2023/02/26 07:48:18;;;;;;;9.20;2.60;;;;;;;;;;5050381;28;20274;-68
2023/02/26 07:50:43;;;;;;;9.15;2.40;;;;;;;;;;5050689;28;20020;-68
2023/02/26 07:53:09;;;;;;;5.93;2.20;;;;;;;;;;5050898;28;20108;-68
2023/02/26 07:55:34;;;;;;;4.60;2.47;;;;;;;;;;5048869;28;20025;-68
2023/02/26 07:57:59;;;;;;;4.93;2.33;;;;;;;;;;5050075;28;20050;-69
2023/02/26 08:00:24;;;;;;;3.23;1.80;;;;;;;;;;5040963;28;20031;-67
2023/02/26 08:02:50;;;;;;;4.97;1.63;;;;;;;;;;5050744;28;20286;-69
2023/02/26 08:05:15;;;;;;;5.20;2.37;;;;;;;;;;5050758;28;20078;-69
2023/02/26 08:07:40;;;;;;;7.13;2.33;;;;;;;;;;5050537;28;20336;-67
2023/02/26 08:10:05;;;;;;;8.40;2.53;;;;;;;;;;5032320;28;20537;-67
2023/02/26 08:12:31;;;;;;;5.95;1.52;;;;;;;;;;5051247;28;20037;-68
2023/02/26 08:14:57;;;;;;;9.00;1.92;;;;;;;;;;5057428;28;20040;-67
2023/02/26 08:17:22;;;;;;;3.78;2.05;;;;;;;;;;5050400;28;20659;-68
2023/02/26 08:19:47;;;;;;;6.20;2.05;;;;;;;;;;5037359;28;20496;-67
2023/02/26 08:22:13;;;;;;;10.00;2.60;;;;;;;;;;5049981;28;20391;-68
2023/02/26 08:24:38;;;;;;;3.40;1.90;;;;;;;;;;5045760;28;20793;-69
2023/02/26 08:27:03;;;;;;;5.30;1.77;;;;;;;;;;5049682;28;20032;-70
2023/02/26 08:29:28;;;;;;;4.03;1.53;;;;;;;;;;5049582;28;20028;-70
2023/02/26 08:31:53;;;;;;;6.63;2.20;;;;;;;;;;5050347;28;20371;-69
2023/02/26 08:34:19;;;;;;;4.07;1.57;;;;;;;;;;5047815;28;20485;-71
2023/02/26 08:36:44;;;;;;;5.97;2.30;;;;;;;;;;5050095;28;20757;-70
2023/02/26 08:39:09;;;;;;;5.05;2.15;;;;;;;;;;5048633;28;20016;-66
2023/02/26 08:41:35;;;;;;;3.70;2.13;;;;;;;;;;5047277;28;20025;-71
2023/02/26 08:44:01;;;;;;;10.20;2.47;;;;;;;;;;5030071;28;20762;-71
2023/02/26 08:46:26;;;;;;;3.50;1.85;;;;;;;;;;5053973;28;20131;-71
2023/02/26 08:48:52;;;;;;;5.65;2.20;;;;;;;;;;5047422;28;20106;-72
2023/02/26 08:51:17;;;;;;;4.40;1.70;;;;;;;;;;5050483;28;20079;-71
2023/02/26 08:53:44;;;;;;;6.60;1.80;;;;;;;;;;5048231;28;20033;-72
2023/02/26 08:56:10;;;;;;;4.82;1.88;;;;;;;;;;5049060;28;20037;-72
2023/02/26 08:58:35;;;;;;;3.33;1.92;;;;;;;;;;5047859;28;20017;-67
2023/02/26 09:01:00;;;;;;;3.30;1.60;;;;;;;;;;5040879;28;20025;-69
2023/02/26 09:03:25;;;;;;;5.53;2.57;;;;;;;;;;5038221;28;20325;-71
2023/02/26 09:05:51;;;;;;;2.77;1.53;;;;;;;;;;5030518;28;20272;-69
2023/02/26 09:08:16;;;;;;;3.42;1.52;;;;;;;;;;5037742;28;20267;-68
2023/02/26 09:10:41;;;;;;;3.53;1.70;;;;;;;;;;5031850;28;20040;-69
2023/02/26 09:13:07;;;;;;;6.47;1.60;;;;;;;;;;5035166;28;20274;-70
2023/02/26 09:15:32;;;;;;;4.65;2.13;;;;;;;;;;5029568;28;20021;-69
2023/02/26 09:17:57;;;;;;;6.97;2.20;;;;;;;;;;5040301;28;20359;-66
2023/02/26 09:20:23;;;;;;;3.35;1.67;;;;;;;;;;5034379;28;20634;-69
2023/02/26 09:22:48;;;;;;;3.00;1.55;;;;;;;;;;5035865;28;20056;-70
2023/02/26 09:25:14;;;;;;;5.30;1.80;;;;;;;;;;5047648;28;20018;-71
2023/02/26 09:27:39;;;;;;;5.55;1.88;;;;;;;;;;5048420;28;20033;-70
2023/02/26 09:30:05;;;;;;;4.63;2.05;;;;;;;;;;5045941;28;20146;-71
2023/02/26 09:32:30;;;;;;;4.82;1.50;;;;;;;;;;5047683;28;20017;-70
2023/02/26 09:34:55;;;;;;;4.57;1.77;;;;;;;;;;5049212;28;20036;-72
2023/02/26 09:37:21;;;;;;;2.70;1.25;;;;;;;;;;5048891;28;20307;-73
2023/02/26 09:39:46;;;;;;;2.72;1.55;;;;;;;;;;5049035;28;20091;-76
2023/02/26 09:42:17;;;;;;;3.50;1.67;;;;;;;;;;5042963;28;20024;-74
2023/02/26 09:44:42;;;;;;;4.07;1.83;;;;;;;;;;5045031;28;20861;-75
2023/02/26 09:47:10;;;;;;;4.45;1.80;;;;;;;;;;5047967;28;20071;-72
2023/02/26 09:49:41;;;;;;;5.65;2.30;;;;;;;;;;5032722;28;20041;-75
2023/02/26 09:52:15;;;;;;;4.95;2.10;;;;;;;;;;5044396;28;20112;-71
2023/02/26 09:54:43;;;;;;;5.43;1.70;;;;;;;;;;5047755;28;20028;-71
2023/02/26 09:57:10;;;;;;;4.78;1.73;;;;;;;;;;5030552;28;20051;-67
2023/02/26 09:59:36;;;;;;;2.92;1.60;;;;;;;;;;5038531;28;20337;-67
2023/02/26 10:02:06;;;;;;;6.03;1.75;;;;;;;;;;5041098;28;20120;-67
2023/02/26 10:04:49;;;;;;;5.95;2.10;;;;;;;;;;5030662;28;20025;-67
2023/02/26 10:07:18;;;;;;;3.47;1.73;;;;;;;;;;5043228;28;20116;-68
2023/02/26 10:09:46;;;;;;;7.60;1.85;;;;;;;;;;5048733;28;20090;-67
2023/02/26 10:12:12;;;;;;;5.30;2.60;;;;;;;;;;5040208;28;20025;-65
2023/02/26 10:14:57;;;;;;;4.10;2.00;;;;;;;;;;5044719;28;20086;-68
2023/02/26 10:17:41;;;;;;;6.60;1.88;;;;;;;;;;5048676;28;20041;-66
2023/02/26 10:20:29;;;;;;;4.88;2.08;;;;;;;;;;5043517;28;20049;-68
2023/02/26 10:23:13;;;;;;;3.03;1.63;;;;;;;;;;5042794;28;20055;-67
2023/02/26 10:25:45;;;;;;;3.95;1.73;;;;;;;;;;5044650;28;20407;-68
2023/02/26 10:28:13;;;;;;;6.95;2.67;;;;;;;;;;5047235;28;20487;-68
2023/02/26 10:30:41;;;;;;;6.93;1.60;;;;;;;;;;5046840;28;20511;-73
2023/02/26 10:33:18;;;;;;;2.60;1.67;;;;;;;;;;5028971;28;20029;-73
2023/02/26 10:35:53;;;;;;;4.20;1.67;;;;;;;;;;5037805;28;20028;-71
2023/02/26 10:38:21;;;;;;;3.40;1.75;;;;;;;;;;5044312;28;20032;-74
2023/02/26 10:40:52;;;;;;;2.15;1.42;;;;;;;;;;5047774;28;20045;-72
2023/02/26 10:43:26;;;;;;;3.47;1.85;;;;;;;;;;5042812;28;20053;-72
2023/02/26 10:45:57;;;;;;;3.47;1.60;;;;;;;;;;5044973;28;20071;-71
2023/02/26 10:48:40;;;;;;;5.15;1.33;;;;;;;;;;5039442;28;20518;-68
2023/02/26 10:51:11;;;;;;;4.10;1.65;;;;;;;;;;5045168;28;20039;-72
2023/02/26 10:53:36;;;;;;;2.00;1.30;;;;;;;;;;5039678;28;20061;-73
2023/02/26 10:56:28;;;;;;;3.15;1.50;;;;;;;;;;5038142;28;20036;-72
2023/02/26 10:58:53;;;;;;;6.45;1.90;;;;;;;;;;5042838;28;20052;-74
2023/02/26 11:01:20;;;;;;;3.90;1.95;;;;;;;;;;5047334;28;20016;-73
2023/02/26 11:03:46;;;;;;;3.50;1.60;;;;;;;;;;5047775;28;20025;-73
2023/02/26 11:06:15;;;;;;;2.72;1.42;;;;;;;;;;5046038;28;20025;-75
2023/02/26 11:08:44;;;;;;;3.47;1.90;;;;;;;;;;5041790;28;20056;-68
2023/02/26 11:11:10;;;;;;;2.88;1.92;;;;;;;;;;5048691;28;20021;-70
2023/02/26 11:13:37;;;;;;;3.00;1.50;;;;;;;;;;5045734;28;20124;-68
2023/02/26 11:16:10;;;;;;;5.32;2.30;;;;;;;;;;5044456;28;20459;-69
2023/02/26 11:18:38;;;;;;;3.17;1.65;;;;;;;;;;5037572;28;20673;-69
2023/02/26 11:21:04;;;;;;;2.75;1.35;;;;;;;;;;5044172;28;20036;-70
2023/02/26 11:23:31;;;;;;;3.60;1.40;;;;;;;;;;5044253;28;20025;-71
2023/02/26 11:26:01;;;;;;;4.55;1.85;;;;;;;;;;5053273;28;20145;-70
2023/02/26 11:28:26;;;;;;;;;;;;;;;;;;5045405;28;20029;-71
2023/02/26 11:30:53;;;;;;;2.38;1.40;;;;;;;;;;5030912;28;20625;-74
2023/02/26 11:33:48;;;;;;;2.75;1.25;;;;;;;;;;5042604;28;20037;-74
2023/02/26 11:36:14;;;;;;;2.25;1.50;;;;;;;;;;5011089;28;20534;-73
2023/02/26 11:38:39;;;;;;;3.88;1.40;;;;;;;;;;5046710;28;20486;-73
2023/02/26 11:41:05;;;;;;;4.35;1.95;;;;;;;;;;5045619;28;20029;-71
2023/02/26 11:43:35;;;;;;;5.47;2.20;;;;;;;;;;5048062;28;20024;-73
2023/02/26 11:46:00;;;;;;;;;;;;;;;;;;5051185;28;20531;-78
2023/02/26 11:48:46;;;;;;;4.07;1.40;;;;;;;;;;5029495;28;19912;-77
2023/02/26 11:51:18;;;;;;;4.90;1.35;;;;;;;;;;5049994;28;20487;-76
2023/02/26 11:53:53;;;;;;;3.75;1.35;;;;;;;;;;5050728;28;20039;-77
2023/02/26 11:56:44;;;;;;;3.17;1.70;;;;;;;;;;5044377;28;20472;-75
2023/02/26 11:59:20;;;;;;;2.03;1.50;;;;;;;;;;4984316;28;20119;-77
2023/02/26 12:01:46;;;;;;;3.65;1.60;;;;;;;;;;4988445;28;20034;-64
2023/02/26 12:04:12;;;;;;;3.22;1.48;;;;;;;;;;4969320;28;20046;-67
2023/02/26 12:06:40;;;;;;;3.38;1.73;;;;;;;;;;4986205;28;20033;-68
2023/02/26 12:09:11;;;;;;;3.00;1.52;;;;;;;;;;4980208;28;20030;-67
2023/02/26 12:11:36;;;;;;;2.83;1.48;;;;;;;;;;4987480;28;20120;-67
2023/02/26 12:14:13;;;;;;;2.00;1.10;;;;;;;;;;4976961;28;20608;-66
2023/02/26 12:16:48;;;;;;;2.78;1.10;;;;;;;;;;4985548;28;20157;-65
2023/02/26 12:19:20;;;;;;;2.15;1.17;;;;;;;;;;4984272;28;20061;-69
2023/02/26 12:21:57;;;;;;;3.63;1.50;;;;;;;;;;4982810;28;20500;-67
2023/02/26 12:24:25;;;;;;;3.60;1.30;;;;;;;;;;4983415;28;20034;-70
2023/02/26 12:26:58;;;;;;;1.83;1.20;;;;;;;;;;4974510;28;20019;-70
2023/02/26 12:29:23;;;;;;;1.73;1.30;;;;;;;;;;4992542;28;20044;-66
2023/02/26 12:31:51;;;;;;;3.93;1.37;;;;;;;;;;4986455;28;20113;-68
2023/02/26 12:34:35;;;;;;;4.90;1.42;;;;;;;;;;4984574;28;20774;-69
2023/02/26 12:37:19;;;;;;;2.35;1.38;;;;;;;;;;5037635;28;20223;-69
2023/02/26 12:39:50;;;;;;;3.53;1.80;;;;;;;;;;5048227;28;20017;-68
2023/02/26 12:42:21;;;;;;;1.83;1.20;;;;;;;;;;5048475;28;20071;-73
2023/02/26 12:44:46;;;;;;;4.07;1.33;;;;;;;;;;5047902;28;20057;-71
2023/02/26 12:47:30;;;;;;;1.53;1.43;;;;;;;;;;5029709;28;20128;-70
2023/02/26 12:50:06;;;;;;;8.18;1.60;;;;;;;;;;5048315;28;20059;-71
2023/02/26 12:52:39;;;;;;;2.38;1.40;;;;;;;;;;5049495;28;20116;-72
2023/02/26 12:55:21;;;;;;;2.22;1.45;;;;;;;;;;5047148;28;20086;-71
2023/02/26 12:57:52;;;;;;;1.77;1.20;;;;;;;;;;5048450;28;20037;-71
2023/02/26 13:00:22;;;;;;;2.17;1.30;;;;;;;;;;5050257;28;20028;-65
2023/02/26 13:03:06;;;;;;;5.00;1.73;;;;;;;;;;5047924;28;20476;-66
2023/02/26 13:05:37;;;;;;;16.38;1.95;;;;;;;;;;5039902;28;20040;-67
2023/02/26 13:08:08;;;;;;;2.22;1.30;;;;;;;;;;5045993;28;20100;-66
2023/02/26 13:10:45;;;;;;;2.85;1.30;;;;;;;;;;5029521;28;20040;-65
2023/02/26 13:13:17;;;;;;;4.57;1.63;;;;;;;;;;5042802;28;20037;-66
2023/02/26 13:15:49;;;;;;;3.03;1.15;;;;;;;;;;5043862;28;20074;-68
2023/02/26 13:18:20;;;;;;;2.38;1.15;;;;;;;;;;5045951;28;20041;-67
2023/02/26 13:20:54;;;;;;;2.47;1.20;;;;;;;;;;5039413;28;20032;-66
2023/02/26 13:23:22;;;;;;;2.33;1.40;;;;;;;;;;5049000;28;20025;-68
2023/02/26 13:25:54;;;;;;;2.17;1.38;;;;;;;;;;5047081;28;20075;-67
2023/02/26 13:28:24;;;;;;;2.50;1.38;;;;;;;;;;5038366;28;20033;-66
2023/02/26 13:30:52;;;;;;;6.78;1.92;;;;;;;;;;5039646;28;20037;-69
2023/02/26 13:33:19;;;;;;;2.08;1.30;;;;;;;;;;5039914;28;20328;-76
2023/02/26 13:35:46;;;;;;;2.53;1.48;;;;;;;;;;5033296;28;20029;-67
2023/02/26 13:38:30;;;;;;;1.77;1.10;;;;;;;;;;5016079;28;20052;-66
2023/02/26 13:41:02;;;;;;;1.48;0.93;;;;;;;;;;5034039;28;20032;-66
2023/02/26 13:43:32;;;;;;;1.58;1.13;;;;;;;;;;5041432;28;20024;-65
2023/02/26 13:46:11;;;;;;;4.22;1.38;;;;;;;;;;5036823;28;20459;-65
2023/02/26 13:48:55;;;;;;;1.90;1.23;;;;;;;;;;5035834;28;20091;-66
2023/02/26 13:51:32;;;;;;;2.42;1.40;;;;;;;;;;5039806;28;20033;-70
2023/02/26 13:54:03;;;;;;;7.05;1.88;;;;;;;;;;5041268;28;20025;-66
2023/02/26 13:56:31;;;;;;;2.42;1.25;;;;;;;;;;5044527;28;20037;-75
2023/02/26 13:59:11;;;;;;;3.95;1.52;;;;;;;;;;5047676;28;20033;-76
2023/02/26 14:01:45;;;;;;;2.88;1.40;;;;;;;;;;5044217;28;20090;-76
2023/02/26 14:04:13;;;;;;;2.38;1.20;;;;;;;;;;5048680;28;20607;-74
2023/02/26 14:06:42;;;;;;;1.73;0.90;;;;;;;;;;5050951;28;20041;-75
2023/02/26 14:09:22;;;;;;;1.03;0.93;;;;;;;;;;5047807;28;20034;-69
2023/02/26 14:11:53;;;;;;;2.10;1.20;;;;;;;;;;5043828;28;20341;-76
2023/02/26 14:14:21;;;;;;;3.83;1.02;;;;;;;;;;5045585;28;20029;-78
2023/02/26 14:16:54;;;;;;;1.95;1.42;;;;;;;;;;5043529;28;20048;-78
2023/02/26 14:19:22;;;;;;;2.95;1.67;;;;;;;;;;5042582;28;20029;-74
2023/02/26 14:21:47;;;;;;;1.17;0.90;;;;;;;;;;5046565;28;20025;-82
2023/02/26 14:24:15;;;;;;;2.63;1.33;;;;;;;;;;5047905;28;20032;-78
2023/02/26 14:26:43;;;;;;;2.20;1.30;;;;;;;;;;5048461;28;20271;-79
2023/02/26 14:29:31;;;;;;;2.17;1.27;;;;;;;;;;5040684;28;20028;-66
2023/02/26 14:32:04;;;;;;;3.08;1.23;;;;;;;;;;5051608;28;20503;-78
2023/02/26 14:34:35;;;;;;;1.67;1.20;;;;;;;;;;5045615;28;20021;-75
2023/02/26 14:37:03;;;;;;;1.27;1.13;;;;;;;;;;5051970;28;20063;-73
2023/02/26 14:39:32;;;;;;;1.67;1.13;;;;;;;;;;5056145;28;20809;-73
2023/02/26 14:42:11;;;;;;;1.85;1.10;;;;;;;;;;5052350;28;20035;-75
2023/02/26 14:44:41;;;;;;;2.08;1.17;;;;;;;;;;5042125;28;20025;-76
2023/02/26 14:47:06;;;;;;;;;;;;;;;;;;5045926;28;20032;-77
2023/02/26 14:49:34;;;;;;;0.87;0.87;;;;;;;;;;5048866;28;20588;-66
2023/02/26 14:52:14;;;;;;;2.25;1.50;;;;;;;;;;5049519;28;20282;-69
2023/02/26 14:54:47;;;;;;;1.63;1.30;;;;;;;;;;5049158;28;20086;-67